Time;durP1;ratioP1;P1;durP2;ratioP2;P2;SDS_P1;SDS_P2;PMS_P1;PMS_P2;Temp;Humidity;BMP_temperature;BMP_pressure;BME280_temperature;BME280_humidity;BME280_pressure;Samples;Min_cycle;Max_cycle;Signal;HPM_P1;HPM_P2
2023/11/13 12:32:03;;;;;;;2.65;1.92;;;;;;;;;;5335830;23;20504;-87
2023/11/13 12:34:30;;;;;;;1.52;1.42;;;;;;;;;;4976261;28;20050;-88
2023/11/13 12:36:56;;;;;;;1.70;1.60;;;;;;;;;;4993705;28;20030;-88
2023/11/13 12:39:26;;;;;;;2.03;1.65;;;;;;;;;;4993497;28;20400;-88
2023/11/13 12:41:51;;;;;;;;;;;;;;;;;;4994252;28;20026;-85
2023/11/13 12:44:19;;;;;;;3.33;1.73;;;;;;;;;;4994119;28;20016;-88
2023/11/13 12:46:50;;;;;;;1.90;1.80;;;;;;;;;;4995951;28;20069;-88
2023/11/13 17:42:02;;;;;;;5.22;4.20;;;;;;;;;;4954048;28;20043;-90
2023/11/13 17:44:28;;;;;;;8.27;6.10;;;;;;;;;;4943403;29;20051;-86
2023/11/13 17:46:53;;;;;;;9.00;5.97;;;;;;;;;;4935391;29;20032;-87
2023/11/13 17:49:19;;;;;;;7.10;5.53;;;;;;;;;;4934783;29;20038;-88
2023/11/13 17:51:44;;;;;;;4.88;4.05;;;;;;;;;;4936901;29;20088;-87
2023/11/13 17:54:10;;;;;;;3.55;2.88;;;;;;;;;;4938156;29;20028;-90
2023/11/13 17:56:36;;;;;;;3.67;3.33;;;;;;;;;;4930259;29;20031;-87
2023/11/13 17:59:04;;;;;;;4.10;3.15;;;;;;;;;;4917470;29;20118;-89
2023/11/13 18:01:31;;;;;;;3.95;3.53;;;;;;;;;;4917618;29;20035;-87
2023/11/13 18:03:56;;;;;;;4.10;3.70;;;;;;;;;;4918939;29;20029;-86
2023/11/13 18:06:29;;;;;;;3.50;3.13;;;;;;;;;;4917792;29;20032;-89
2023/11/13 18:08:56;;;;;;;3.65;3.00;;;;;;;;;;4917540;29;20032;-86
2023/11/13 18:11:22;;;;;;;3.83;3.28;;;;;;;;;;4918446;29;20083;-85
2023/11/13 18:13:47;;;;;;;3.92;3.03;;;;;;;;;;4927685;29;20111;-85
2023/11/13 18:16:14;;;;;;;6.43;3.72;;;;;;;;;;4936243;29;20035;-85
2023/11/13 18:18:40;;;;;;;4.78;3.40;;;;;;;;;;4937493;29;20395;-86
2023/11/13 18:21:05;;;;;;;4.65;3.10;;;;;;;;;;4937476;29;20110;-86
2023/11/13 18:23:31;;;;;;;3.80;3.20;;;;;;;;;;4937408;29;20040;-87
2023/11/13 18:25:58;;;;;;;3.80;3.40;;;;;;;;;;4936068;29;20035;-85
2023/11/13 18:28:24;;;;;;;5.07;3.95;;;;;;;;;;4937464;29;20023;-85
2023/11/13 18:30:52;;;;;;;6.20;4.70;;;;;;;;;;4936293;29;20027;-87
2023/11/13 18:33:17;;;;;;;4.60;3.80;;;;;;;;;;4937205;29;20024;-87
2023/11/13 18:35:43;;;;;;;4.90;3.72;;;;;;;;;;4935840;29;20091;-87
2023/11/13 18:38:08;;;;;;;5.10;4.07;;;;;;;;;;4937174;29;20032;-86
2023/11/13 18:40:35;;;;;;;6.63;3.75;;;;;;;;;;4937181;29;20131;-87
2023/11/13 18:43:01;;;;;;;6.82;4.00;;;;;;;;;;4938756;29;20024;-88
2023/11/13 18:45:26;;;;;;;6.00;3.90;;;;;;;;;;4955892;29;20027;-87
2023/11/13 18:47:52;;;;;;;4.45;3.92;;;;;;;;;;4930620;29;20079;-87
2023/11/13 18:50:17;;;;;;;5.47;4.40;;;;;;;;;;4952684;29;20027;-87
2023/11/13 18:52:43;;;;;;;5.55;4.45;;;;;;;;;;4956458;29;20042;-86
2023/11/13 18:55:09;;;;;;;6.68;3.95;;;;;;;;;;4956142;29;20039;-86
2023/11/13 18:57:35;;;;;;;7.72;5.72;;;;;;;;;;4956454;28;20030;-87
2023/11/13 19:00:00;;;;;;;8.35;6.30;;;;;;;;;;4956148;29;20023;-86
2023/11/13 19:02:26;;;;;;;9.20;6.20;;;;;;;;;;4955926;29;20038;-87
2023/11/13 19:04:52;;;;;;;9.52;6.18;;;;;;;;;;4939035;29;20053;-88
2023/11/13 19:07:17;;;;;;;7.07;5.57;;;;;;;;;;4954601;29;20500;-87
2023/11/13 19:09:44;;;;;;;8.98;5.38;;;;;;;;;;4956046;29;20037;-87
2023/11/13 19:12:10;;;;;;;6.35;5.57;;;;;;;;;;4955855;29;20019;-86
2023/11/13 19:14:35;;;;;;;10.07;6.43;;;;;;;;;;4955989;29;20070;-88
2023/11/13 19:17:03;;;;;;;7.70;5.82;;;;;;;;;;4956092;28;20492;-86
2023/11/13 19:19:28;;;;;;;7.35;5.57;;;;;;;;;;4955826;29;20083;-85
2023/11/13 19:21:54;;;;;;;5.35;4.43;;;;;;;;;;4955720;29;20411;-86
2023/11/13 19:24:21;;;;;;;5.85;3.97;;;;;;;;;;4955654;29;20031;-86
2023/11/13 19:26:48;;;;;;;5.18;4.68;;;;;;;;;;4955665;28;20023;-85
2023/11/13 19:29:20;;;;;;;28.60;15.00;;;;;;;;;;4955580;29;20081;-85
2023/11/13 19:31:48;;;;;;;20.45;10.93;;;;;;;;;;4955884;29;20165;-86
2023/11/13 19:34:13;;;;;;;10.95;6.38;;;;;;;;;;4938523;29;20038;-86
2023/11/13 19:36:40;;;;;;;5.55;4.50;;;;;;;;;;4955627;28;20047;-85
2023/11/13 19:39:06;;;;;;;6.63;5.78;;;;;;;;;;4955547;29;20019;-85
2023/11/13 19:41:32;;;;;;;9.50;6.32;;;;;;;;;;4955584;29;20118;-85
2023/11/13 19:43:58;;;;;;;9.35;6.10;;;;;;;;;;4955317;29;20098;-85
2023/11/13 19:46:24;;;;;;;10.18;5.57;;;;;;;;;;4955497;29;20028;-86
2023/11/13 19:48:50;;;;;;;6.95;5.28;;;;;;;;;;4954168;29;20039;-86
2023/11/13 19:51:16;;;;;;;12.60;7.68;;;;;;;;;;4955424;29;20027;-86
2023/11/13 19:53:42;;;;;;;10.77;6.72;;;;;;;;;;4955638;28;20027;-86
2023/11/13 19:56:08;;;;;;;15.23;8.98;;;;;;;;;;4958570;29;20027;-86
2023/11/13 19:58:35;;;;;;;22.08;15.93;;;;;;;;;;4959377;28;20049;-87
2023/11/13 20:01:00;;;;;;;13.00;8.68;;;;;;;;;;4942192;29;20034;-87
2023/11/13 20:03:26;;;;;;;9.65;7.43;;;;;;;;;;4959391;29;20035;-86
2023/11/13 20:05:52;;;;;;;11.43;8.20;;;;;;;;;;4958045;29;20034;-87
2023/11/13 20:08:18;;;;;;;8.38;6.28;;;;;;;;;;4959321;28;20036;-87
2023/11/13 20:10:43;;;;;;;9.05;7.20;;;;;;;;;;4959296;29;20154;-86
2023/11/13 20:13:09;;;;;;;8.85;6.70;;;;;;;;;;4958011;29;20504;-86
2023/11/13 20:15:35;;;;;;;11.07;7.05;;;;;;;;;;4941612;29;20045;-86
2023/11/13 20:18:00;;;;;;;12.57;8.52;;;;;;;;;;4942029;29;20023;-86
2023/11/13 20:20:26;;;;;;;11.68;7.07;;;;;;;;;;4959084;29;20054;-86
2023/11/13 20:22:52;;;;;;;11.55;7.30;;;;;;;;;;4959336;29;20470;-86
2023/11/13 20:25:17;;;;;;;7.35;5.53;;;;;;;;;;4959083;29;20086;-87
2023/11/13 20:27:43;;;;;;;7.57;5.53;;;;;;;;;;4957677;29;20035;-87
2023/11/13 20:30:08;;;;;;;10.00;6.20;;;;;;;;;;4958899;29;20031;-86
2023/11/13 20:32:34;;;;;;;9.38;6.65;;;;;;;;;;4941446;29;20034;-86
2023/11/13 20:35:00;;;;;;;8.55;6.18;;;;;;;;;;4958653;29;20371;-86
2023/11/13 20:37:26;;;;;;;7.43;5.95;;;;;;;;;;4958848;28;20422;-85
2023/11/13 20:39:51;;;;;;;9.20;6.70;;;;;;;;;;4958846;29;20091;-83
2023/11/13 20:42:17;;;;;;;8.75;6.47;;;;;;;;;;4958633;29;20051;-83
2023/11/13 20:44:42;;;;;;;8.80;6.53;;;;;;;;;;4958677;29;20031;-83
2023/11/13 20:47:08;;;;;;;8.68;6.22;;;;;;;;;;4941413;29;20061;-84
2023/11/13 20:49:35;;;;;;;10.05;6.53;;;;;;;;;;4958511;29;20537;-84
2023/11/13 20:52:00;;;;;;;10.57;6.40;;;;;;;;;;4958513;29;20039;-84
2023/11/13 20:54:26;;;;;;;7.70;6.00;;;;;;;;;;4958500;29;20027;-84
2023/11/13 20:56:51;;;;;;;15.20;8.98;;;;;;;;;;4958395;28;20102;-84
2023/11/13 20:59:17;;;;;;;15.57;11.95;;;;;;;;;;4958165;29;20035;-84
2023/11/13 21:01:42;;;;;;;9.15;7.38;;;;;;;;;;4958518;29;20130;-84
2023/11/13 21:04:09;;;;;;;10.93;8.48;;;;;;;;;;4958232;29;20458;-83
2023/11/13 21:06:37;;;;;;;9.27;7.35;;;;;;;;;;4958082;28;20039;-85
2023/11/13 21:09:07;;;;;;;12.75;8.93;;;;;;;;;;4940841;29;20027;-85
2023/11/13 21:11:32;;;;;;;17.88;10.85;;;;;;;;;;4958152;29;20501;-85
2023/11/13 21:13:58;;;;;;;16.95;10.98;;;;;;;;;;4940713;29;20059;-85
2023/11/13 21:16:24;;;;;;;68.22;40.67;;;;;;;;;;4957882;29;20027;-85
2023/11/13 21:18:50;;;;;;;90.82;47.72;;;;;;;;;;4957980;28;20043;-86
2023/11/13 21:21:15;;;;;;;25.35;17.38;;;;;;;;;;4940697;29;20027;-85
2023/11/13 21:23:41;;;;;;;29.40;17.63;;;;;;;;;;4957885;29;20070;-85
2023/11/13 21:26:06;;;;;;;28.27;17.38;;;;;;;;;;4957788;29;20030;-85
2023/11/13 21:28:33;;;;;;;32.60;19.02;;;;;;;;;;4940492;29;20028;-85
2023/11/13 21:31:00;;;;;;;24.45;16.52;;;;;;;;;;4958021;29;20038;-85
2023/11/13 21:33:25;;;;;;;16.92;10.30;;;;;;;;;;4957726;29;20023;-86
2023/11/13 21:35:51;;;;;;;14.98;8.48;;;;;;;;;;4958165;29;20492;-85
2023/11/13 21:38:17;;;;;;;11.27;7.75;;;;;;;;;;4957302;28;20038;-85
2023/11/13 21:40:43;;;;;;;9.30;7.20;;;;;;;;;;4957502;29;20502;-84
2023/11/13 21:43:09;;;;;;;20.48;13.60;;;;;;;;;;4957705;29;20135;-85
2023/11/13 21:45:36;;;;;;;18.52;11.80;;;;;;;;;;4957576;29;20486;-85
2023/11/13 21:48:02;;;;;;;25.73;16.52;;;;;;;;;;4957305;28;20023;-85
2023/11/13 21:50:28;;;;;;;35.33;21.38;;;;;;;;;;4957577;29;20034;-85
2023/11/13 21:52:54;;;;;;;19.08;12.30;;;;;;;;;;4957453;29;20382;-85
2023/11/13 21:55:19;;;;;;;23.17;15.07;;;;;;;;;;4957398;29;20034;-87
2023/11/13 21:57:45;;;;;;;18.73;12.25;;;;;;;;;;4957016;28;20031;-85
2023/11/13 22:00:11;;;;;;;19.70;12.57;;;;;;;;;;4957154;29;20027;-85
2023/11/13 22:02:37;;;;;;;18.85;12.27;;;;;;;;;;4939564;29;20027;-85
2023/11/13 22:05:06;;;;;;;21.23;13.95;;;;;;;;;;4939926;29;20462;-85
2023/11/13 22:07:32;;;;;;;28.40;15.10;;;;;;;;;;4957397;29;20082;-85
2023/11/13 22:09:58;;;;;;;25.17;15.05;;;;;;;;;;4957351;29;20031;-85
2023/11/13 22:12:23;;;;;;;20.75;11.63;;;;;;;;;;4957410;29;20031;-85
2023/11/13 22:14:51;;;;;;;18.25;11.98;;;;;;;;;;4957348;29;20385;-86
2023/11/13 22:17:17;;;;;;;24.00;14.43;;;;;;;;;;4956554;28;20023;-86
2023/11/13 22:19:43;;;;;;;18.60;11.23;;;;;;;;;;4957217;29;20030;-85
2023/11/13 22:22:08;;;;;;;18.83;10.88;;;;;;;;;;4956885;29;20023;-86
2023/11/13 22:24:34;;;;;;;12.43;8.13;;;;;;;;;;4956774;29;20200;-85
2023/11/13 22:27:05;;;;;;;12.50;8.98;;;;;;;;;;4956710;29;20106;-85
2023/11/13 22:29:31;;;;;;;10.63;8.25;;;;;;;;;;4956629;29;20053;-85
2023/11/13 22:31:57;;;;;;;13.63;8.63;;;;;;;;;;4956792;29;20078;-85
2023/11/13 22:34:22;;;;;;;12.27;8.35;;;;;;;;;;4939523;29;20417;-85
2023/11/13 22:36:48;;;;;;;10.30;7.85;;;;;;;;;;4956531;29;20051;-86
2023/11/13 22:39:15;;;;;;;11.48;8.25;;;;;;;;;;4956682;29;20027;-85
2023/11/13 22:41:41;;;;;;;11.38;7.97;;;;;;;;;;4935949;29;20099;-86
2023/11/13 22:44:07;;;;;;;12.95;8.38;;;;;;;;;;4937355;29;20031;-85
2023/11/13 22:46:33;;;;;;;12.00;8.18;;;;;;;;;;4937236;29;20038;-86
2023/11/13 22:48:58;;;;;;;13.35;8.93;;;;;;;;;;4936977;29;20031;-86
2023/11/13 22:51:24;;;;;;;14.43;10.73;;;;;;;;;;4937338;29;20486;-85
2023/11/13 22:53:49;;;;;;;14.60;9.70;;;;;;;;;;4935980;29;20055;-84
2023/11/13 22:56:15;;;;;;;13.43;8.85;;;;;;;;;;4937051;29;20035;-83
2023/11/13 22:58:41;;;;;;;13.38;8.45;;;;;;;;;;4936921;29;20024;-85
2023/11/13 23:01:08;;;;;;;11.20;7.75;;;;;;;;;;4936779;29;20027;-85
2023/11/13 23:03:33;;;;;;;11.40;8.52;;;;;;;;;;4936930;29;20060;-86
2023/11/13 23:05:59;;;;;;;13.13;9.13;;;;;;;;;;4937047;29;20067;-85
2023/11/13 23:08:24;;;;;;;15.38;9.82;;;;;;;;;;4936886;29;20127;-88
2023/11/13 23:13:25;;;;;;;12.52;9.00;;;;;;;;;;5883422;23;20395;-86
2023/11/13 23:15:50;;;;;;;12.60;9.68;;;;;;;;;;4936474;29;20035;-87
